Time;durP1;ratioP1;P1;durP2;ratioP2;P2;SDS_P1;SDS_P2;PMS_P1;PMS_P2;Temp;Humidity;BMP_temperature;BMP_pressure;BME280_temperature;BME280_humidity;BME280_pressure;Samples;Min_cycle;Max_cycle;Signal;HPM_P1;HPM_P2
2023/01/20 00:01:45;;;;;;;5.93;5.30;;;9.20;99.90;;;;;;5044851;28;20188;-70
2023/01/20 00:04:18;;;;;;;7.17;4.80;;;9.20;99.90;;;;;;5042293;28;20199;-70
2023/01/20 00:06:47;;;;;;;5.70;5.00;;;9.10;99.90;;;;;;5041563;28;20195;-70
2023/01/20 00:09:16;;;;;;;5.47;4.60;;;9.00;99.90;;;;;;5016341;28;20184;-70
2023/01/20 00:11:43;;;;;;;5.40;4.87;;;9.00;99.90;;;;;;5044095;28;20184;-70
2023/01/20 00:14:11;;;;;;;5.20;4.53;;;8.90;99.90;;;;;;5043299;28;20192;-70
2023/01/20 00:16:42;;;;;;;6.37;4.57;;;8.90;99.90;;;;;;5043094;28;20177;-70
2023/01/20 00:19:13;;;;;;;7.93;4.53;;;8.90;99.90;;;;;;5040888;28;20222;-70
2023/01/20 00:21:42;;;;;;;5.60;4.50;;;8.90;99.90;;;;;;5046725;28;20196;-70
2023/01/20 00:24:09;;;;;;;5.30;4.80;;;9.00;99.90;;;;;;5033463;28;20661;-70
2023/01/20 00:26:35;;;;;;;5.17;4.63;;;8.90;99.90;;;;;;5052197;28;20548;-70
2023/01/20 00:29:01;;;;;;;4.77;4.27;;;8.90;99.90;;;;;;5024794;28;20427;-71
2023/01/20 00:31:32;;;;;;;5.73;4.67;;;9.00;99.90;;;;;;5048518;28;20191;-71
2023/01/20 00:33:59;;;;;;;4.70;4.20;;;9.00;99.90;;;;;;5028580;28;20200;-70
2023/01/20 00:36:32;;;;;;;6.93;5.23;;;9.00;99.90;;;;;;5062421;28;20214;-70
2023/01/20 00:39:01;;;;;;;8.63;4.97;;;9.00;99.90;;;;;;5023853;28;20215;-70
2023/01/20 00:41:28;;;;;;;6.47;4.70;;;9.00;99.90;;;;;;5038132;28;20652;-70
2023/01/20 00:43:54;;;;;;;5.57;4.40;;;9.00;99.90;;;;;;5035015;28;20187;-70
2023/01/20 00:46:21;;;;;;;6.73;4.60;;;8.90;99.90;;;;;;5039506;28;20190;-70
2023/01/20 00:48:48;;;;;;;5.57;4.80;;;8.90;99.90;;;;;;5019283;28;20604;-70
2023/01/20 00:51:15;;;;;;;6.47;5.00;;;8.90;99.90;;;;;;5043250;28;20521;-70
2023/01/20 00:53:41;;;;;;;6.17;4.77;;;8.90;99.90;;;;;;5052856;28;20214;-71
2023/01/20 00:56:08;;;;;;;5.90;5.07;;;8.90;99.90;;;;;;5029922;28;20222;-71
2023/01/20 00:58:34;;;;;;;6.57;4.80;;;8.90;99.90;;;;;;5026495;28;20216;-71
2023/01/20 01:01:00;;;;;;;5.67;4.97;;;9.00;99.90;;;;;;5028218;28;20187;-73
2023/01/20 01:03:28;;;;;;;5.00;4.40;;;9.00;99.90;;;;;;5025238;28;20773;-72
2023/01/20 01:06:05;;;;;;;8.07;4.60;;;8.90;99.90;;;;;;5042665;28;20230;-72
2023/01/20 01:08:33;;;;;;;5.37;4.40;;;8.80;99.90;;;;;;5036168;28;20213;-72
2023/01/20 01:10:59;;;;;;;6.97;5.07;;;8.70;99.90;;;;;;5028771;28;20766;-72
2023/01/20 01:13:26;;;;;;;5.80;4.33;;;8.70;99.90;;;;;;5043069;28;20704;-72
2023/01/20 01:15:52;;;;;;;6.50;4.50;;;8.70;99.90;;;;;;5038163;28;20215;-72
2023/01/20 01:18:18;;;;;;;8.17;4.63;;;8.70;99.90;;;;;;5046770;28;20666;-72
2023/01/20 01:20:44;;;;;;;4.63;4.23;;;8.80;99.90;;;;;;5047050;28;20195;-72
2023/01/20 01:23:11;;;;;;;5.87;3.97;;;8.80;99.90;;;;;;5031986;28;20200;-72
2023/01/20 01:25:38;;;;;;;5.90;4.47;;;8.80;99.90;;;;;;5041262;28;20208;-72
2023/01/20 01:28:04;;;;;;;6.07;4.53;;;8.80;99.90;;;;;;5045135;28;20198;-72
2023/01/20 01:30:33;;;;;;;3.97;3.67;;;8.80;99.90;;;;;;5031349;28;20246;-72
2023/01/20 01:33:00;;;;;;;4.70;3.83;;;8.70;99.90;;;;;;5033392;28;20207;-72
2023/01/20 01:35:28;;;;;;;5.20;4.20;;;8.70;99.90;;;;;;5049903;28;20670;-72
2023/01/20 01:37:54;;;;;;;4.23;3.83;;;8.70;99.90;;;;;;5028473;28;20211;-72
2023/01/20 01:40:20;;;;;;;4.17;3.70;;;8.70;99.90;;;;;;5036281;28;20203;-72
2023/01/20 01:42:47;;;;;;;4.90;4.17;;;8.70;99.90;;;;;;5039289;28;20714;-72
2023/01/20 01:45:23;;;;;;;6.43;4.30;;;8.80;99.90;;;;;;5036493;28;20184;-72
2023/01/20 01:48:04;;;;;;;4.90;4.27;;;8.70;99.90;;;;;;5044016;28;20252;-72
2023/01/20 01:50:45;;;;;;;7.07;4.50;;;8.60;99.90;;;;;;5038362;28;20199;-72
2023/01/20 01:53:13;;;;;;;4.30;3.77;;;8.60;99.90;;;;;;5026271;28;20199;-72
2023/01/20 01:55:52;;;;;;;6.63;4.60;;;8.60;99.90;;;;;;5033954;28;20223;-72
2023/01/20 01:58:26;;;;;;;7.03;4.57;;;8.50;99.90;;;;;;5049179;28;20797;-72
2023/01/20 02:00:54;;;;;;;4.53;4.13;;;8.50;99.90;;;;;;5041184;28;20202;-72
2023/01/20 02:03:23;;;;;;;4.70;3.90;;;8.50;99.90;;;;;;5031073;28;20216;-72
2023/01/20 02:05:54;;;;;;;4.47;4.07;;;8.50;99.90;;;;;;5046907;28;20818;-72
2023/01/20 02:08:24;;;;;;;4.73;4.00;;;8.50;99.90;;;;;;5031789;28;20245;-72
2023/01/20 02:10:50;;;;;;;5.20;4.50;;;8.50;99.90;;;;;;5036615;28;20194;-72
2023/01/20 02:13:17;;;;;;;5.03;4.30;;;8.50;99.90;;;;;;5034295;28;20195;-72
2023/01/20 02:16:16;;;;;;;5.27;4.60;;;8.50;99.90;;;;;;5032693;28;20226;-72
2023/01/20 02:19:04;;;;;;;7.20;4.10;;;8.50;99.90;;;;;;5033736;28;20215;-72
2023/01/20 02:22:12;;;;;;;6.67;4.67;;;8.50;99.90;;;;;;5041392;28;20286;-72
2023/01/20 02:25:21;;;;;;;5.40;4.77;;;8.60;99.90;;;;;;5052116;28;20187;-72
2023/01/20 02:28:16;;;;;;;4.87;4.37;;;8.60;99.90;;;;;;5026655;28;20718;-73
2023/01/20 02:31:22;;;;;;;6.20;4.83;;;8.60;99.90;;;;;;5047265;28;20192;-72
2023/01/20 02:34:22;;;;;;;5.10;4.43;;;8.60;99.90;;;;;;5042423;28;20198;-72
2023/01/20 02:37:08;;;;;;;5.50;4.93;;;8.60;99.90;;;;;;5032869;28;20286;-71
2023/01/20 02:40:06;;;;;;;5.97;4.50;;;8.50;99.90;;;;;;5040790;28;20207;-71
2023/01/20 02:42:41;;;;;;;7.17;4.73;;;8.50;99.90;;;;;;5041315;28;20193;-71
2023/01/20 02:45:21;;;;;;;7.40;4.57;;;8.50;99.90;;;;;;5033694;28;20188;-71
2023/01/20 02:48:09;;;;;;;6.50;4.67;;;8.50;99.90;;;;;;5030379;28;20196;-70
2023/01/20 02:51:06;;;;;;;5.13;4.60;;;8.50;99.90;;;;;;5045432;28;20206;-74
2023/01/20 02:54:06;;;;;;;6.33;4.90;;;8.50;99.90;;;;;;5040014;28;20770;-74
2023/01/20 02:56:36;;;;;;;5.97;4.93;;;8.50;99.90;;;;;;5048385;28;20197;-74
2023/01/20 02:59:11;;;;;;;5.63;4.70;;;8.50;99.90;;;;;;5045922;28;20687;-74
2023/01/20 03:02:05;;;;;;;6.00;5.40;;;8.50;99.90;;;;;;5051898;28;20663;-74
2023/01/20 03:04:40;;;;;;;10.03;5.50;;;8.50;99.90;;;;;;5035981;28;20249;-74
2023/01/20 03:07:10;;;;;;;5.97;5.07;;;8.50;99.90;;;;;;5034339;28;20186;-74
2023/01/20 03:10:01;;;;;;;6.50;5.33;;;8.50;99.90;;;;;;5046354;28;20682;-74
2023/01/20 03:13:12;;;;;;;5.90;5.27;;;8.50;99.90;;;;;;5035413;28;20205;-74
2023/01/20 03:16:09;;;;;;;6.37;5.30;;;8.60;99.90;;;;;;5032384;28;20195;-75
2023/01/20 03:18:37;;;;;;;5.10;4.60;;;8.50;99.90;;;;;;5038146;28;20345;-75
2023/01/20 03:21:07;;;;;;;6.97;4.47;;;8.50;99.90;;;;;;5037889;28;20243;-75
2023/01/20 03:23:39;;;;;;;4.43;3.73;;;8.40;99.90;;;;;;5049676;28;20206;-75
2023/01/20 03:26:13;;;;;;;3.83;3.50;;;8.40;99.90;;;;;;5034059;28;20532;-74
2023/01/20 03:28:43;;;;;;;4.27;3.57;;;8.40;99.90;;;;;;5045730;28;20197;-74
2023/01/20 03:31:25;;;;;;;6.03;3.93;;;8.40;99.90;;;;;;5039222;28;20199;-74
2023/01/20 03:33:57;;;;;;;6.93;3.47;;;8.40;99.90;;;;;;5035857;28;20195;-74
2023/01/20 03:36:27;;;;;;;5.43;3.37;;;8.40;99.90;;;;;;5038463;28;20196;-74
2023/01/20 03:38:57;;;;;;;2.97;2.60;;;8.40;99.90;;;;;;5036214;28;20211;-74
2023/01/20 03:41:30;;;;;;;3.90;2.63;;;8.40;99.90;;;;;;5055547;28;20183;-75
2023/01/20 03:43:56;;;;;;;3.20;2.47;;;8.30;99.90;;;;;;5034502;28;20195;-74
2023/01/20 03:46:51;;;;;;;2.43;2.20;;;8.30;99.90;;;;;;5033007;28;20214;-75
2023/01/20 03:50:06;;;;;;;2.73;2.10;;;8.30;99.90;;;;;;5019069;28;20199;-75
2023/01/20 03:53:08;;;;;;;2.27;2.07;;;8.20;99.90;;;;;;5010628;28;20208;-74
2023/01/20 03:55:55;;;;;;;3.23;2.30;;;8.20;99.90;;;;;;4980536;28;20216;-74
2023/01/20 03:58:33;;;;;;;2.90;2.07;;;8.30;99.90;;;;;;5039978;28;20688;-74
2023/01/20 04:01:06;;;;;;;2.40;2.07;;;8.30;99.90;;;;;;5011720;28;20230;-74
2023/01/20 04:03:41;;;;;;;2.33;1.80;;;8.10;99.90;;;;;;5038217;28;20793;-74
2023/01/20 04:06:12;;;;;;;3.97;1.70;;;8.20;99.90;;;;;;5037654;28;20278;-74
2023/01/20 04:08:54;;;;;;;1.73;1.40;;;8.20;99.90;;;;;;5047328;28;20645;-74
2023/01/20 04:11:20;;;;;;;2.33;1.60;;;8.10;99.90;;;;;;5027683;28;20703;-75
2023/01/20 04:13:47;;;;;;;2.07;1.40;;;8.20;99.90;;;;;;5048537;28;20680;-74
2023/01/20 04:16:18;;;;;;;3.93;1.43;;;8.20;99.90;;;;;;5025902;28;20433;-74
2023/01/20 04:18:50;;;;;;;1.40;1.00;;;8.10;99.90;;;;;;5046103;28;20716;-74
2023/01/20 04:21:47;;;;;;;3.23;1.30;;;8.10;99.90;;;;;;5030429;28;20287;-74
2023/01/20 04:24:38;;;;;;;3.10;1.40;;;8.20;99.90;;;;;;5017140;28;20223;-74
2023/01/20 04:27:06;;;;;;;2.43;1.43;;;8.20;99.90;;;;;;5040637;28;20706;-74
2023/01/20 04:29:32;;;;;;;2.73;1.30;;;8.10;99.90;;;;;;5037249;28;20203;-74
2023/01/20 04:32:03;;;;;;;2.87;1.50;;;8.10;99.90;;;;;;5027625;28;20230;-74
2023/01/20 04:34:29;;;;;;;5.13;3.10;;;8.10;99.90;;;;;;5027252;28;20280;-74
2023/01/20 04:36:55;;;;;;;4.60;2.60;;;8.00;99.90;;;;;;5031901;28;20246;-74
2023/01/20 04:39:22;;;;;;;2.50;1.50;;;7.90;99.90;;;;;;5050453;28;21974;-74
2023/01/20 04:41:49;;;;;;;5.43;1.77;;;7.90;99.90;;;;;;5042404;28;20183;-74
2023/01/20 04:44:17;;;;;;;2.40;1.67;;;7.80;99.90;;;;;;5033870;28;20188;-75
2023/01/20 04:46:46;;;;;;;2.57;1.70;;;7.80;99.90;;;;;;5036046;28;20236;-74
2023/01/20 04:49:13;;;;;;;3.10;2.20;;;7.70;99.90;;;;;;5025460;28;20203;-74
2023/01/20 04:51:41;;;;;;;3.23;2.20;;;7.70;99.90;;;;;;5028671;28;20195;-74
2023/01/20 04:54:07;;;;;;;5.20;2.33;;;7.70;99.90;;;;;;5022962;28;20195;-74
2023/01/20 04:56:34;;;;;;;2.30;1.70;;;7.70;99.90;;;;;;5040918;28;20182;-74
2023/01/20 04:59:01;;;;;;;3.13;2.10;;;7.70;99.90;;;;;;5031683;28;20567;-74
2023/01/20 05:01:27;;;;;;;3.10;2.00;;;7.60;99.90;;;;;;5035732;28;20667;-74
2023/01/20 05:03:53;;;;;;;2.20;2.00;;;7.60;99.90;;;;;;5034632;28;20191;-74
2023/01/20 05:06:19;;;;;;;4.43;2.10;;;7.70;99.90;;;;;;5037081;28;20218;-74
2023/01/20 05:08:46;;;;;;;2.67;2.10;;;7.70;99.90;;;;;;5041381;28;20820;-74
2023/01/20 05:11:13;;;;;;;3.50;2.43;;;7.70;99.90;;;;;;5035388;28;20195;-74
2023/01/20 05:13:39;;;;;;;3.03;2.20;;;7.80;99.90;;;;;;5013748;28;20220;-74
2023/01/20 05:16:08;;;;;;;3.40;2.30;;;7.90;99.90;;;;;;5020888;28;20191;-74
2023/01/20 05:18:35;;;;;;;2.40;2.20;;;7.90;99.90;;;;;;5053681;28;21020;-75
2023/01/20 05:21:04;;;;;;;2.63;2.20;;;7.90;99.90;;;;;;5041313;28;20184;-74
2023/01/20 05:23:30;;;;;;;3.17;2.40;;;7.90;99.90;;;;;;5049364;28;20289;-74
2023/01/20 05:25:58;;;;;;;2.67;2.20;;;8.00;99.90;;;;;;5045137;28;20674;-74
2023/01/20 05:28:26;;;;;;;5.80;2.47;;;8.00;99.90;;;;;;5039467;28;20195;-74
2023/01/20 05:30:52;;;;;;;3.40;2.20;;;8.00;99.90;;;;;;5025811;28;20195;-74
2023/01/20 05:33:18;;;;;;;3.80;2.33;;;8.00;99.90;;;;;;5055522;28;20286;-74
2023/01/20 05:35:44;;;;;;;3.17;2.10;;;8.00;99.90;;;;;;5023780;28;20713;-74
2023/01/20 05:38:11;;;;;;;3.07;2.50;;;8.00;99.90;;;;;;5041992;28;20964;-74
2023/01/20 05:40:37;;;;;;;4.43;2.67;;;8.00;99.90;;;;;;5056070;28;20274;-74
2023/01/20 05:43:04;;;;;;;3.40;2.53;;;8.00;99.90;;;;;;5046212;28;20191;-74
2023/01/20 05:45:31;;;;;;;4.50;3.00;;;8.10;99.90;;;;;;5036214;28;21832;-74
2023/01/20 05:47:59;;;;;;;5.67;3.00;;;8.10;99.90;;;;;;5025112;28;20190;-74
2023/01/20 05:50:27;;;;;;;2.77;2.53;;;8.10;99.90;;;;;;5039106;28;20559;-74
2023/01/20 05:52:55;;;;;;;2.47;2.27;;;8.10;99.90;;;;;;5010012;28;20482;-74
2023/01/20 05:55:21;;;;;;;4.27;2.50;;;8.10;99.90;;;;;;5021880;28;20927;-74
2023/01/20 05:57:47;;;;;;;2.93;2.47;;;8.10;99.90;;;;;;5007868;28;21892;-74
2023/01/20 06:00:14;;;;;;;2.70;2.50;;;8.10;99.90;;;;;;5035277;28;20650;-74
2023/01/20 06:02:40;;;;;;;3.30;2.43;;;8.00;99.90;;;;;;5034050;28;20201;-74
2023/01/20 06:05:07;;;;;;;2.70;2.40;;;8.10;99.90;;;;;;5034091;28;20191;-74
2023/01/20 06:07:34;;;;;;;4.40;2.20;;;8.10;99.90;;;;;;5034278;28;20418;-74
2023/01/20 06:10:01;;;;;;;2.50;2.10;;;8.10;99.90;;;;;;5032177;28;20560;-74
2023/01/20 06:12:29;;;;;;;3.23;2.30;;;8.10;99.90;;;;;;5021075;28;20188;-74
2023/01/20 06:14:58;;;;;;;4.17;2.33;;;8.20;99.90;;;;;;5030748;28;20210;-74
2023/01/20 06:17:24;;;;;;;3.53;2.13;;;8.20;99.90;;;;;;5033672;28;20941;-74
2023/01/20 06:19:50;;;;;;;2.77;2.23;;;8.30;99.90;;;;;;5032693;28;20195;-74
2023/01/20 06:22:19;;;;;;;3.80;2.23;;;8.40;99.90;;;;;;5036916;28;20192;-74
2023/01/20 06:24:45;;;;;;;4.67;1.93;;;8.40;99.90;;;;;;5039666;28;20641;-74
2023/01/20 06:27:12;;;;;;;3.30;1.97;;;8.50;99.90;;;;;;5042444;28;20195;-74
2023/01/20 06:29:38;;;;;;;3.70;2.00;;;8.60;99.90;;;;;;5028832;28;20216;-75
2023/01/20 06:32:04;;;;;;;5.33;2.10;;;8.60;99.90;;;;;;5034936;28;20196;-74
2023/01/20 06:34:31;;;;;;;2.10;1.80;;;8.70;99.90;;;;;;5050990;28;20224;-75
2023/01/20 06:36:57;;;;;;;2.70;1.90;;;8.80;99.90;;;;;;5044018;28;20192;-74
2023/01/20 06:39:23;;;;;;;2.77;1.77;;;8.90;99.90;;;;;;5030737;28;20250;-75
2023/01/20 06:41:50;;;;;;;2.80;1.87;;;8.90;99.90;;;;;;5039884;28;20307;-74
2023/01/20 06:44:16;;;;;;;4.50;2.10;;;9.00;99.90;;;;;;5032972;28;20199;-75
2023/01/20 06:46:43;;;;;;;1.80;1.60;;;9.10;99.90;;;;;;5035870;28;20203;-74
2023/01/20 06:49:09;;;;;;;3.13;1.83;;;9.10;99.90;;;;;;5020770;28;20204;-74
2023/01/20 06:51:35;;;;;;;3.50;2.17;;;9.20;99.90;;;;;;5032399;28;20215;-74
2023/01/20 06:54:03;;;;;;;2.73;2.10;;;9.30;99.90;;;;;;5035253;28;20265;-74
2023/01/20 06:56:31;;;;;;;2.80;2.20;;;9.40;99.90;;;;;;5034710;28;20195;-74
2023/01/20 06:58:58;;;;;;;2.20;2.00;;;9.40;99.90;;;;;;5029030;28;20299;-74
2023/01/20 07:01:29;;;;;;;3.87;2.17;;;9.50;99.90;;;;;;5031125;28;21177;-74
2023/01/20 07:03:59;;;;;;;2.60;2.17;;;9.50;99.90;;;;;;5027495;28;20203;-74
2023/01/20 07:06:39;;;;;;;2.33;2.13;;;9.60;99.90;;;;;;5036666;28;20187;-74
2023/01/20 07:09:11;;;;;;;3.83;2.20;;;9.60;99.90;;;;;;5043186;28;20207;-74
2023/01/20 07:11:38;;;;;;;2.30;2.00;;;9.70;99.90;;;;;;5036829;28;20188;-74
2023/01/20 07:14:06;;;;;;;3.27;2.50;;;9.70;99.90;;;;;;5045445;28;20404;-74
2023/01/20 07:16:35;;;;;;;2.53;2.30;;;9.80;99.90;;;;;;5043666;28;20203;-75
2023/01/20 07:19:02;;;;;;;3.07;2.30;;;9.80;99.90;;;;;;5027495;28;20226;-74
2023/01/20 07:21:28;;;;;;;2.10;1.90;;;9.90;99.90;;;;;;5051739;28;20194;-74
2023/01/20 07:23:54;;;;;;;2.63;2.00;;;10.00;99.90;;;;;;5045164;28;20191;-75
2023/01/20 07:26:25;;;;;;;2.33;2.00;;;10.00;99.90;;;;;;5039220;28;20187;-74
2023/01/20 07:28:51;;;;;;;6.47;2.23;;;10.10;99.90;;;;;;5036816;28;20207;-74
2023/01/20 07:31:24;;;;;;;2.70;2.07;;;10.10;99.90;;;;;;5033359;28;20575;-74
2023/01/20 07:33:53;;;;;;;3.40;2.03;;;10.10;99.90;;;;;;5050646;28;20242;-74
2023/01/20 07:36:19;;;;;;;2.40;2.20;;;10.20;99.90;;;;;;5053155;28;20566;-74
2023/01/20 07:38:50;;;;;;;3.17;2.30;;;10.30;99.90;;;;;;5038776;28;20283;-74
2023/01/20 07:41:18;;;;;;;3.00;2.40;;;10.40;99.90;;;;;;5044345;28;20245;-74
2023/01/20 07:43:51;;;;;;;6.70;2.50;;;10.30;99.90;;;;;;5040140;28;20309;-74
2023/01/20 07:46:18;;;;;;;6.63;2.50;;;10.40;99.90;;;;;;5063648;28;20183;-74
2023/01/20 07:48:45;;;;;;;3.97;2.30;;;10.50;99.90;;;;;;5061245;28;20196;-74
2023/01/20 07:51:14;;;;;;;2.50;2.30;;;10.60;99.90;;;;;;5051014;28;20759;-74
2023/01/20 07:53:47;;;;;;;4.53;2.50;;;10.60;99.90;;;;;;5044220;28;20278;-74
2023/01/20 07:56:24;;;;;;;3.00;2.60;;;10.60;99.90;;;;;;5037214;28;20226;-74
2023/01/20 07:58:51;;;;;;;3.20;2.90;;;10.70;99.90;;;;;;5030086;28;20223;-74
2023/01/20 08:01:27;;;;;;;4.97;3.67;;;10.70;99.90;;;;;;5041690;28;20208;-74
2023/01/20 08:04:02;;;;;;;4.03;3.23;;;10.70;99.90;;;;;;5056979;28;20275;-74
2023/01/20 08:06:30;;;;;;;8.00;3.80;;;10.80;99.90;;;;;;5038988;28;20217;-74
2023/01/20 08:09:00;;;;;;;4.40;2.90;;;10.90;99.90;;;;;;5051386;28;20191;-74
2023/01/20 08:11:28;;;;;;;4.77;3.10;;;10.90;99.90;;;;;;5015132;28;20192;-74
2023/01/20 08:13:56;;;;;;;4.43;2.70;;;10.90;99.90;;;;;;5019573;28;20196;-74
2023/01/20 08:16:23;;;;;;;3.17;2.40;;;11.00;99.90;;;;;;5020016;28;20191;-74
2023/01/20 08:18:56;;;;;;;3.13;2.77;;;11.00;99.90;;;;;;5020627;28;21354;-74
2023/01/20 08:21:31;;;;;;;5.70;2.97;;;11.10;99.90;;;;;;5019755;28;20191;-74
2023/01/20 08:24:06;;;;;;;5.87;3.00;;;11.20;99.90;;;;;;4998033;28;20293;-74
2023/01/20 08:26:33;;;;;;;3.90;3.10;;;11.20;99.90;;;;;;5012286;28;20191;-74
2023/01/20 08:29:08;;;;;;;3.50;2.63;;;11.30;99.90;;;;;;5008014;28;20246;-74
2023/01/20 08:31:35;;;;;;;4.17;2.60;;;11.30;99.90;;;;;;5022306;28;20198;-74
2023/01/20 08:34:02;;;;;;;6.93;3.87;;;11.30;99.90;;;;;;5024499;28;20198;-74
2023/01/20 08:36:35;;;;;;;8.27;4.10;;;11.30;99.90;;;;;;5033236;28;20679;-74
2023/01/20 08:39:05;;;;;;;6.80;3.03;;;11.40;99.90;;;;;;5035260;28;20213;-74
2023/01/20 08:41:36;;;;;;;5.67;2.80;;;11.40;99.90;;;;;;5032420;28;20199;-74
2023/01/20 08:44:07;;;;;;;2.57;2.37;;;11.40;99.90;;;;;;5045506;28;20373;-74
2023/01/20 08:46:34;;;;;;;5.93;2.97;;;11.50;99.90;;;;;;5042433;28;20187;-74
2023/01/20 08:49:01;;;;;;;3.67;2.57;;;11.50;99.90;;;;;;5042092;28;20249;-74
2023/01/20 08:51:31;;;;;;;3.23;2.33;;;11.60;99.90;;;;;;5041765;28;20745;-74
2023/01/20 08:53:59;;;;;;;4.13;2.60;;;11.70;99.90;;;;;;5037829;28;20200;-74
2023/01/20 08:56:26;;;;;;;4.47;2.20;;;11.70;99.90;;;;;;5049675;28;20583;-74
2023/01/20 08:58:56;;;;;;;2.73;2.10;;;11.70;99.90;;;;;;5019779;28;20260;-74
2023/01/20 09:01:30;;;;;;;2.50;2.30;;;11.80;99.90;;;;;;5038542;28;20623;-74
2023/01/20 09:04:00;;;;;;;6.13;2.30;;;11.90;99.90;;;;;;5037885;28;20191;-74
2023/01/20 09:06:27;;;;;;;2.50;2.30;;;11.80;99.90;;;;;;5038203;28;20179;-74
2023/01/20 09:08:53;;;;;;;3.07;2.40;;;11.90;99.90;;;;;;5036158;28;20736;-74
2023/01/20 09:11:23;;;;;;;4.70;2.53;;;11.90;99.90;;;;;;5056865;28;20285;-74
2023/01/20 09:13:50;;;;;;;3.17;2.20;;;12.00;99.90;;;;;;5045638;28;20192;-74
2023/01/20 09:16:19;;;;;;;3.90;2.60;;;12.00;99.90;;;;;;5047999;28;20183;-74
2023/01/20 09:18:45;;;;;;;5.43;2.60;;;12.00;99.90;;;;;;5033309;28;20207;-74
2023/01/20 09:21:12;;;;;;;3.67;2.83;;;12.10;99.90;;;;;;5037386;28;20237;-74
2023/01/20 09:23:43;;;;;;;3.50;2.40;;;12.10;99.90;;;;;;5029196;28;20223;-74
2023/01/20 09:26:09;;;;;;;4.73;2.70;;;12.40;99.90;;;;;;5026286;28;20290;-74
2023/01/20 09:28:37;;;;;;;5.37;2.70;;;12.40;99.90;;;;;;5048440;28;20183;-74
2023/01/20 09:31:08;;;;;;;3.23;2.60;;;12.40;99.90;;;;;;5031391;28;20191;-74
2023/01/20 09:33:38;;;;;;;5.00;2.40;;;12.40;99.90;;;;;;4998965;28;20285;-74
2023/01/20 09:36:08;;;;;;;6.50;2.70;;;12.40;99.90;;;;;;5030898;28;21007;-74
2023/01/20 09:45:06;;;;;;;5.47;2.70;;;12.70;99.90;;;;;;5039792;28;20267;-75
2023/01/20 09:47:46;;;;;;;3.20;2.50;;;12.80;99.90;;;;;;5017840;28;20199;-75
2023/01/20 09:54:00;;;;;;;4.37;2.40;;;12.90;99.90;;;;;;5030446;28;20187;-75
2023/01/20 09:56:30;;;;;;;4.53;2.50;;;13.00;99.90;;;;;;5053176;28;20235;-75
2023/01/20 09:59:19;;;;;;;3.27;2.40;;;13.00;99.90;;;;;;5029809;28;20237;-75
2023/01/20 10:01:55;;;;;;;2.60;2.40;;;13.00;99.90;;;;;;5026042;28;20839;-75
2023/01/20 10:04:42;;;;;;;3.93;2.40;;;13.10;99.90;;;;;;5040474;28;20691;-76
2023/01/20 10:07:23;;;;;;;3.37;2.40;;;13.20;99.90;;;;;;5057410;28;20913;-76
2023/01/20 10:09:58;;;;;;;3.23;2.50;;;13.20;99.90;;;;;;5057564;28;20352;-76
2023/01/20 10:12:39;;;;;;;3.07;2.67;;;13.30;99.90;;;;;;5039630;28;20276;-76
2023/01/20 10:15:21;;;;;;;3.73;2.50;;;13.30;99.90;;;;;;5036074;28;20192;-75
2023/01/20 10:18:24;;;;;;;7.93;3.10;;;13.30;99.90;;;;;;5037005;28;20222;-75
2023/01/20 10:21:06;;;;;;;3.03;2.70;;;13.30;99.90;;;;;;5073637;28;20195;-75
2023/01/20 10:23:56;;;;;;;6.33;3.77;;;13.30;99.90;;;;;;5033097;28;20781;-75
2023/01/20 10:26:47;;;;;;;7.33;5.10;;;13.30;99.90;;;;;;5047582;28;20182;-76
2023/01/20 10:29:38;;;;;;;7.27;3.80;;;13.40;99.90;;;;;;5041312;28;20191;-75
2023/01/20 10:32:37;;;;;;;7.70;4.40;;;13.50;99.90;;;;;;5032815;28;20195;-76
2023/01/20 10:35:16;;;;;;;7.63;4.40;;;13.60;99.90;;;;;;5032764;28;20187;-75
2023/01/20 10:37:44;;;;;;;6.13;4.03;;;13.70;99.90;;;;;;5029591;28;20211;-76
2023/01/20 10:40:49;;;;;;;7.43;4.30;;;13.80;99.90;;;;;;5036925;28;20180;-76
2023/01/20 10:43:18;;;;;;;5.97;4.37;;;14.00;99.90;;;;;;4980006;28;20204;-75
2023/01/20 10:46:04;;;;;;;4.63;3.90;;;14.20;99.90;;;;;;5031879;28;20208;-75
2023/01/20 10:48:57;;;;;;;5.67;3.80;;;14.50;99.90;;;;;;5046162;28;20529;-75
2023/01/20 10:51:50;;;;;;;7.43;3.97;;;14.50;99.90;;;;;;5041832;28;20207;-75
2023/01/20 10:55:00;;;;;;;5.50;3.80;;;14.60;99.90;;;;;;5056569;28;20681;-73
2023/01/20 10:57:26;;;;;;;4.73;3.70;;;14.70;99.90;;;;;;5045835;28;20186;-76
2023/01/20 11:00:14;;;;;;;4.30;3.80;;;14.70;99.90;;;;;;5035065;28;20227;-76
2023/01/20 11:02:41;;;;;;;5.53;3.60;;;14.70;99.90;;;;;;5037981;28;20204;-75
2023/01/20 11:05:19;;;;;;;4.77;3.73;;;14.70;99.90;;;;;;5049159;28;20628;-76
2023/01/20 11:07:49;;;;;;;11.43;3.10;;;14.80;99.90;;;;;;5051701;28;20211;-76
2023/01/20 11:10:24;;;;;;;3.43;2.80;;;14.80;99.90;;;;;;5043287;28;20740;-75
2023/01/20 11:13:01;;;;;;;21.10;4.17;;;14.80;99.90;;;;;;5071663;28;20184;-75
2023/01/20 11:15:52;;;;;;;13.63;3.90;;;15.00;99.90;;;;;;5049666;28;20254;-75
2023/01/20 11:18:29;;;;;;;4.17;3.27;;;15.20;99.90;;;;;;5052465;28;20219;-76
2023/01/20 11:21:12;;;;;;;9.33;3.47;;;15.40;99.90;;;;;;5046694;28;20183;-76
2023/01/20 11:23:48;;;;;;;4.07;2.90;;;15.50;99.90;;;;;;5050058;28;20591;-76
2023/01/20 11:26:27;;;;;;;14.30;7.73;;;15.50;99.90;;;;;;5041717;28;20715;-76
2023/01/20 11:29:11;;;;;;;6.40;2.77;;;15.60;99.90;;;;;;5045206;28;20226;-76
2023/01/20 11:31:50;;;;;;;7.73;2.50;;;15.60;99.90;;;;;;5054448;28;20339;-76
2023/01/20 11:34:33;;;;;;;5.00;3.00;;;15.70;99.90;;;;;;5056566;28;21036;-75
2023/01/20 11:37:24;;;;;;;4.87;2.90;;;15.70;99.90;;;;;;5046589;28;20284;-75
2023/01/20 11:40:01;;;;;;;3.33;2.70;;;15.60;99.90;;;;;;5036399;28;20385;-76
2023/01/20 11:42:43;;;;;;;5.13;2.70;;;15.50;99.90;;;;;;5032268;28;20200;-76
2023/01/20 11:45:35;;;;;;;5.47;2.73;;;15.60;99.90;;;;;;5043449;28;20196;-76
2023/01/20 11:48:19;;;;;;;10.90;3.07;;;15.60;99.90;;;;;;5032385;28;20196;-75
2023/01/20 11:50:53;;;;;;;5.80;3.00;;;15.60;99.90;;;;;;5028567;28;20647;-76
2023/01/20 11:53:32;;;;;;;4.63;2.70;;;15.70;99.90;;;;;;5045087;28;20196;-76
2023/01/20 11:56:13;;;;;;;7.30;3.57;;;15.80;99.90;;;;;;5052803;28;20297;-76
2023/01/20 11:59:00;;;;;;;4.60;3.37;;;15.90;99.90;;;;;;5029334;28;20212;-76
2023/01/20 12:01:51;;;;;;;4.90;2.90;;;15.90;99.90;;;;;;5036016;28;20191;-76
2023/01/20 12:05:14;;;;;;;7.70;3.27;;;15.90;99.90;;;;;;5044108;28;20188;-76
2023/01/20 12:07:48;;;;;;;8.70;3.73;;;15.90;99.90;;;;;;5017719;28;20261;-76
2023/01/20 12:10:28;;;;;;;4.90;3.50;;;16.00;99.90;;;;;;5037106;28;20577;-76
2023/01/20 12:13:17;;;;;;;7.50;3.50;;;16.00;99.90;;;;;;5025692;28;20650;-76
2023/01/20 12:15:51;;;;;;;5.30;3.97;;;15.90;99.90;;;;;;5057569;28;20884;-76
2023/01/20 12:18:52;;;;;;;8.77;4.60;;;15.90;99.90;;;;;;5045745;28;20211;-76
2023/01/20 12:21:25;;;;;;;5.63;3.80;;;15.90;99.90;;;;;;5032670;28;20192;-76
2023/01/20 12:24:24;;;;;;;6.20;3.70;;;16.00;99.90;;;;;;5059418;28;20252;-76
2023/01/20 12:26:54;;;;;;;7.17;4.20;;;16.00;99.90;;;;;;5041367;28;20199;-76
2023/01/20 12:29:43;;;;;;;5.40;3.77;;;15.90;99.90;;;;;;5044244;28;20593;-75
2023/01/20 12:32:10;;;;;;;8.93;4.93;;;15.90;99.90;;;;;;5043972;28;20190;-76
2023/01/20 12:34:37;;;;;;;9.83;5.50;;;15.90;99.90;;;;;;5040635;28;20187;-76
2023/01/20 12:37:37;;;;;;;6.33;5.03;;;16.00;99.90;;;;;;5045331;28;20179;-76
2023/01/20 12:40:30;;;;;;;9.73;5.50;;;15.90;99.90;;;;;;5042297;28;20290;-76
2023/01/20 12:43:18;;;;;;;11.40;5.87;;;15.90;99.90;;;;;;5043392;28;20237;-76
2023/01/20 12:46:24;;;;;;;8.67;5.83;;;15.90;99.90;;;;;;5040752;28;20653;-76
2023/01/20 12:49:27;;;;;;;10.00;5.53;;;15.80;99.90;;;;;;5031086;28;20663;-76
2023/01/20 12:52:42;;;;;;;7.77;5.20;;;15.80;99.90;;;;;;5056875;28;20270;-76
2023/01/20 12:55:48;;;;;;;9.70;5.00;;;15.80;99.90;;;;;;5023831;28;20184;-75
2023/01/20 12:59:15;;;;;;;7.20;4.77;;;15.80;99.90;;;;;;5035790;28;20221;-75
2023/01/20 13:02:17;;;;;;;6.20;4.60;;;15.70;99.90;;;;;;5031353;28;21024;-76
2023/01/20 13:04:59;;;;;;;7.33;5.43;;;15.70;99.90;;;;;;5047925;28;20226;-75
2023/01/20 13:08:02;;;;;;;9.87;5.80;;;15.70;99.90;;;;;;5021758;28;20268;-76
2023/01/20 13:11:44;;;;;;;8.60;4.87;;;15.60;99.90;;;;;;5043945;28;20218;-76
2023/01/20 13:18:29;;;;;;;7.13;5.40;;;15.50;99.90;;;;;;4986680;28;20228;-76
2023/01/20 13:20:58;;;;;;;8.80;5.33;;;15.50;99.90;;;;;;5040896;28;20210;-76
2023/01/20 13:23:39;;;;;;;9.77;6.30;;;15.40;99.90;;;;;;5045160;28;20668;-76
2023/01/20 13:26:24;;;;;;;7.23;5.37;;;15.40;99.90;;;;;;5032729;28;20191;-76
2023/01/20 13:29:03;;;;;;;11.20;6.90;;;15.40;99.90;;;;;;5045431;28;20234;-75
2023/01/20 13:31:37;;;;;;;9.03;6.30;;;15.30;99.90;;;;;;5053836;28;20816;-75
2023/01/20 13:34:45;;;;;;;9.83;6.10;;;15.30;99.90;;;;;;5042457;28;20195;-75
2023/01/20 13:37:36;;;;;;;12.97;6.17;;;15.20;99.90;;;;;;5028843;28;20593;-76
2023/01/20 13:40:36;;;;;;;11.60;7.00;;;15.20;99.90;;;;;;5034683;28;20215;-76
2023/01/20 13:43:32;;;;;;;9.63;7.27;;;15.10;99.90;;;;;;5030586;28;20196;-76
2023/01/20 13:46:05;;;;;;;9.63;6.83;;;15.10;99.90;;;;;;4998319;28;20200;-75
2023/01/20 13:48:36;;;;;;;11.07;7.03;;;15.00;99.90;;;;;;5051985;28;20187;-76
2023/01/20 13:51:18;;;;;;;10.80;6.33;;;14.90;99.90;;;;;;5032618;28;20192;-76